Time;durP1;ratioP1;P1;durP2;ratioP2;P2;SDS_P1;SDS_P2;PMS_P1;PMS_P2;Temp;Humidity;BMP_temperature;BMP_pressure;BME280_temperature;BME280_humidity;BME280_pressure;Samples;Min_cycle;Max_cycle;Signal;HPM_P1;HPM_P2
2022/11/07 00:01:38;;;;;;;;;3.25;3.25;;;;;13.66;66.63;100583.78;5066576;28;47495;-43
2022/11/07 00:04:04;;;;;;;;;6.50;4.00;;;;;13.62;66.72;100580.41;5075841;28;46598;-41
2022/11/07 00:06:30;;;;;;;;;6.50;4.00;;;;;13.65;66.29;100575.03;5078208;27;61248;-41
2022/11/07 00:08:57;;;;;;;;;9.25;3.75;;;;;13.67;66.55;100582.88;5080039;27;46097;-43
2022/11/07 00:11:22;;;;;;;;;5.00;2.75;;;;;13.70;66.41;100582.72;5073496;28;45376;-42
2022/11/07 00:13:48;;;;;;;;;4.25;2.00;;;;;13.73;66.58;100585.22;5077631;27;51367;-41
2022/11/07 00:16:13;;;;;;;;;4.00;3.00;;;;;13.74;66.88;100578.19;5067621;28;66094;-41
2022/11/07 00:18:38;;;;;;;;;6.50;4.00;;;;;13.76;66.61;100582.47;5076709;27;73703;-41
2022/11/07 00:21:06;;;;;;;;;5.50;2.50;;;;;13.76;66.48;100584.25;5079267;27;45359;-43
2022/11/07 00:23:31;;;;;;;;;7.00;3.00;;;;;13.73;66.61;100587.84;5076849;27;45359;-44
2022/11/07 00:26:07;;;;;;;;;5.00;2.75;;;;;13.73;66.38;100581.75;5078917;27;45306;-41
2022/11/07 00:28:33;;;;;;;;;6.75;3.50;;;;;13.75;66.27;100583.38;5075217;27;45647;-42
2022/11/07 00:30:58;;;;;;;;;5.00;2.25;;;;;13.75;66.33;100585.16;5076356;28;45795;-42
2022/11/07 00:33:24;;;;;;;;;6.00;4.00;;;;;13.75;66.22;100578.13;5077316;27;45333;-41
2022/11/07 00:35:50;;;;;;;;;7.00;3.00;;;;;13.74;66.29;100586.94;5078575;27;45389;-41
2022/11/07 00:38:15;;;;;;;;;7.25;2.75;;;;;13.75;66.11;100585.16;5083916;27;46204;-44
2022/11/07 00:40:41;;;;;;;;;9.50;3.00;;;;;13.75;66.45;100586.00;5079971;27;45395;-43
2022/11/07 00:43:06;;;;;;;;;5.00;3.00;;;;;13.77;66.49;100589.41;5078628;27;68277;-42
2022/11/07 00:45:31;;;;;;;;;5.75;2.00;;;;;13.77;66.27;100586.78;5071928;28;48209;-45
2022/11/07 00:47:57;;;;;;;;;5.00;2.00;;;;;13.78;66.36;100590.28;5073881;28;66766;-43
2022/11/07 00:50:22;;;;;;;;;7.00;2.75;;;;;13.77;66.33;100591.22;5093200;27;69390;-41
2022/11/07 00:52:47;;;;;;;;;7.00;2.00;;;;;13.77;66.32;100580.69;5061218;28;45295;-45
2022/11/07 00:55:13;;;;;;;;;4.00;2.75;;;;;13.78;66.68;100579.78;5077958;27;63531;-43
2022/11/07 00:57:38;;;;;;;;;6.50;3.00;;;;;13.80;65.98;100572.66;5078668;27;71828;-43
2022/11/07 01:00:04;;;;;;;;;6.25;3.00;;;;;13.79;66.57;100579.72;5067592;27;45254;-41
2022/11/07 01:02:29;;;;;;;;;8.00;2.00;;;;;13.81;66.53;100577.00;5075317;27;45524;-44
2022/11/07 01:05:09;;;;;;;;;4.00;2.75;;;;;13.81;66.61;100580.50;5082140;27;69574;-44
2022/11/07 01:07:35;;;;;;;;;6.50;4.00;;;;;13.81;66.18;100582.25;5082921;27;45429;-41
2022/11/07 01:10:01;;;;;;;;;6.25;2.25;;;;;13.83;66.47;100583.06;5082896;27;45319;-41
2022/11/07 01:12:27;;;;;;;;;2.75;1.75;;;;;13.85;66.29;100579.44;5077088;27;45485;-40
2022/11/07 01:14:52;;;;;;;;;8.75;4.50;;;;;13.88;66.15;100581.06;5082095;27;45227;-44
2022/11/07 01:17:18;;;;;;;;;7.00;1.75;;;;;13.89;66.22;100584.56;5081454;28;46242;-45
2022/11/07 01:19:43;;;;;;;;;2.50;2.25;;;;;13.90;66.13;100592.41;5071135;27;67440;-42
2022/11/07 01:22:08;;;;;;;;;9.25;3.75;;;;;13.91;66.19;100596.72;5080389;28;53808;-42
2022/11/07 01:24:34;;;;;;;;;6.00;3.00;;;;;13.91;66.02;100594.09;5083237;27;45442;-41
2022/11/07 01:26:59;;;;;;;;;4.75;2.50;;;;;13.93;66.21;100594.88;5080693;27;45414;-41
2022/11/07 01:29:25;;;;;;;;;5.25;2.50;;;;;13.92;65.90;100587.94;5082233;27;63872;-41
2022/11/07 01:31:50;;;;;;;;;7.75;3.75;;;;;13.93;66.01;100592.25;5079707;28;45348;-46
2022/11/07 01:34:16;;;;;;;;;5.25;2.50;;;;;13.97;65.99;100600.84;5080529;27;72683;-45
2022/11/07 01:36:42;;;;;;;;;4.00;4.00;;;;;13.99;66.34;100591.16;5079408;27;45355;-47
2022/11/07 01:39:07;;;;;;;;;10.00;3.00;;;;;14.00;66.36;100588.44;5082710;27;45395;-48
2022/11/07 01:41:35;;;;;;;;;5.75;3.75;;;;;14.03;65.86;100590.94;5094973;27;45778;-44
2022/11/07 01:44:06;;;;;;;;;4.25;2.75;;;;;14.03;65.87;100592.72;5081483;28;45320;-47
2022/11/07 01:46:38;;;;;;;;;5.00;2.00;;;;;14.03;65.66;100582.19;5078708;27;45547;-45
2022/11/07 01:49:11;;;;;;;;;6.25;2.00;;;;;14.04;65.97;100586.50;5082543;27;45763;-48
2022/11/07 01:51:45;;;;;;;;;4.00;2.50;;;;;14.04;66.02;100583.88;5078366;28;45349;-43
2022/11/07 01:54:12;;;;;;;;;8.50;2.75;;;;;14.06;65.91;100587.34;5078029;28;45589;-48
2022/11/07 01:56:39;;;;;;;;;4.00;4.00;;;;;14.07;66.11;100580.28;5082057;27;45394;-42
2022/11/07 01:59:05;;;;;;;;;4.00;2.00;;;;;14.07;65.63;100596.91;5068228;27;45272;-43
2022/11/07 02:01:30;;;;;;;;;5.00;2.75;;;;;14.07;65.64;100602.19;5072153;27;45480;-43
2022/11/07 02:03:57;;;;;;;;;8.00;2.50;;;;;14.05;65.64;100594.34;5072952;28;45421;-40
2022/11/07 02:06:31;;;;;;;;;3.75;3.25;;;;;14.03;65.79;100596.19;5077590;27;75338;-41
2022/11/07 02:08:57;;;;;;;;;3.25;2.25;;;;;14.06;65.91;100597.84;5080485;27;45744;-43
2022/11/07 02:11:22;;;;;;;;;6.75;3.00;;;;;14.05;65.86;100599.59;5078376;28;65755;-43
2022/11/07 02:13:48;;;;;;;;;6.50;2.25;;;;;14.06;65.86;100605.75;5080881;28;71991;-46
2022/11/07 02:16:13;;;;;;;;;3.50;3.50;;;;;14.07;65.70;100603.97;5076657;27;66386;-42
2022/11/07 02:18:41;;;;;;;;;5.75;2.25;;;;;14.04;65.78;100605.81;5082687;27;45370;-41
2022/11/07 02:21:22;;;;;;;;;7.50;3.00;;;;;14.04;65.73;100613.72;5079915;27;45265;-41
2022/11/07 02:23:54;;;;;;;;;7.00;3.00;;;;;14.03;66.16;100609.34;5081373;27;45411;-42
2022/11/07 02:26:19;;;;;;;;;5.00;3.00;;;;;14.01;66.02;100613.84;5056491;28;48141;-41
2022/11/07 02:28:47;;;;;;;;;6.25;3.00;;;;;14.05;65.82;100615.41;5076548;28;67106;-42
2022/11/07 02:31:13;;;;;;;;;2.75;1.25;;;;;14.07;65.85;100612.69;5075956;27;45319;-41
2022/11/07 02:33:38;;;;;;;;;4.00;2.00;;;;;14.08;65.57;100608.28;5079654;27;72747;-45
2022/11/07 02:36:04;;;;;;;;;2.50;2.00;;;;;14.07;65.57;100604.81;5080424;27;69330;-41
2022/11/07 02:38:31;;;;;;;;;5.75;2.25;;;;;14.08;65.63;100610.91;5082105;27;45327;-42
2022/11/07 02:41:00;;;;;;;;;7.00;2.25;;;;;14.09;65.61;100608.22;5081582;27;45253;-42
2022/11/07 02:43:28;;;;;;;;;8.00;2.25;;;;;14.10;65.73;100603.84;5080725;27;45612;-43
2022/11/07 02:45:55;;;;;;;;;6.75;2.50;;;;;14.10;65.98;100598.56;5076037;27;47467;-46
2022/11/07 02:48:20;;;;;;;;;7.00;2.25;;;;;14.09;65.61;100608.22;5080079;28;45309;-43
2022/11/07 02:50:46;;;;;;;;;6.00;2.00;;;;;14.09;65.50;100599.47;5080452;27;69733;-44
2022/11/07 02:53:11;;;;;;;;;3.50;3.00;;;;;14.08;65.78;100593.38;5079792;27;45217;-43
2022/11/07 02:55:36;;;;;;;;;3.00;0.75;;;;;14.09;65.64;100597.69;5080078;27;46603;-41
2022/11/07 02:58:02;;;;;;;;;5.50;3.25;;;;;14.07;65.72;100594.28;5077491;27;45229;-42
2022/11/07 03:00:27;;;;;;;;;4.50;3.50;;;;;14.09;65.61;100594.22;5073701;27;45354;-43
2022/11/07 03:02:53;;;;;;;;;4.00;2.00;;;;;14.10;65.44;100594.16;5080438;27;45239;-42
2022/11/07 03:05:19;;;;;;;;;3.50;2.50;;;;;14.11;65.57;100587.97;5086268;27;47173;-43
2022/11/07 03:07:47;;;;;;;;;7.75;2.25;;;;;14.11;65.57;100597.63;5080959;27;45240;-41
2022/11/07 03:10:14;;;;;;;;;5.00;2.00;;;;;14.12;65.73;100596.72;5081382;27;45220;-42
2022/11/07 03:12:39;;;;;;;;;4.25;1.75;;;;;14.13;65.24;100598.41;5080065;27;45339;-41
2022/11/07 03:15:06;;;;;;;;;1.00;1.00;;;;;14.14;65.33;100597.50;5079202;27;74548;-42
2022/11/07 03:17:31;;;;;;;;;3.00;2.00;;;;;14.16;65.48;100606.19;5082285;27;45549;-42
2022/11/07 03:19:57;;;;;;;;;1.00;0.00;;;;;14.17;65.13;100605.28;5072345;27;66727;-44
2022/11/07 03:22:22;;;;;;;;;5.25;1.00;;;;;14.17;65.44;100611.38;5078677;28;67829;-42
2022/11/07 03:24:47;;;;;;;;;6.00;1.00;;;;;14.17;65.32;100619.28;5080515;27;45763;-43
2022/11/07 03:27:14;;;;;;;;;2.25;2.00;;;;;14.18;65.11;100615.75;5076104;28;73349;-43
2022/11/07 03:29:39;;;;;;;;;5.25;2.00;;;;;14.18;65.26;100620.13;5080841;27;45265;-42
2022/11/07 03:32:05;;;;;;;;;4.50;2.00;;;;;14.15;65.21;100615.88;5079369;28;45201;-47
2022/11/07 03:34:30;;;;;;;;;6.50;1.00;;;;;14.14;65.16;100616.78;5078843;27;65014;-42
2022/11/07 03:36:55;;;;;;;;;5.25;1.75;;;;;14.13;65.18;100612.44;5079665;27;68486;-43
2022/11/07 03:39:21;;;;;;;;;6.75;2.75;;;;;14.12;65.03;100617.78;5080064;27;63982;-42
2022/11/07 03:41:46;;;;;;;;;2.50;1.50;;;;;14.10;65.15;100617.00;5079000;27;45222;-45
2022/11/07 03:44:11;;;;;;;;;8.25;2.50;;;;;14.10;65.25;100603.84;5082693;27;45357;-42
2022/11/07 03:46:37;;;;;;;;;2.00;1.25;;;;;14.08;65.08;100605.66;5080254;28;51100;-42
2022/11/07 03:49:02;;;;;;;;;7.50;1.00;;;;;14.11;65.12;100597.63;5078785;27;45382;-42
2022/11/07 03:51:27;;;;;;;;;3.00;2.25;;;;;14.09;65.08;100602.97;5079975;27;54736;-41
2022/11/07 03:53:53;;;;;;;;;2.75;2.25;;;;;14.07;65.31;100601.34;5075691;27;70815;-42
2022/11/07 03:56:18;;;;;;;;;7.00;1.00;;;;;14.07;65.35;100590.81;5075202;28;64728;-41
2022/11/07 03:58:43;;;;;;;;;4.00;2.25;;;;;14.09;65.31;100591.59;5051061;28;45537;-41
2022/11/07 04:01:10;;;;;;;;;7.00;2.75;;;;;14.10;65.23;100596.78;5078183;28;62079;-41
2022/11/07 04:03:35;;;;;;;;;3.25;2.50;;;;;14.10;65.50;100583.63;5084341;27;45463;-40
2022/11/07 04:06:01;;;;;;;;;2.75;2.00;;;;;14.11;65.18;100595.00;5075949;27;45330;-41
2022/11/07 04:08:26;;;;;;;;;8.50;2.25;;;;;14.11;65.29;100595.00;5080374;27;45275;-42
2022/11/07 04:10:52;;;;;;;;;3.50;2.25;;;;;14.09;65.79;100594.22;5076959;27;59269;-43
2022/11/07 04:18:45;;;;;;;;;2.75;2.00;;;;;14.07;65.47;100596.06;5077075;28;45310;-41
2022/11/07 04:21:10;;;;;;;;;4.00;1.00;;;;;14.06;65.04;100587.34;5079429;27;71505;-42
2022/11/07 04:23:36;;;;;;;;;2.25;1.25;;;;;14.07;65.58;100594.28;5078588;27;64295;-42
2022/11/07 04:28:45;;;;;;;;;6.00;1.75;;;;;14.12;65.55;100584.41;5079555;27;45444;-41
2022/11/07 04:31:10;;;;;;;;;4.50;2.00;;;;;14.14;65.44;100589.63;5077921;27;64441;-45
2022/11/07 04:33:36;;;;;;;;;5.50;2.50;;;;;14.17;65.72;100597.38;5080344;27;58899;-47
2022/11/07 04:36:01;;;;;;;;;3.50;2.75;;;;;14.19;65.73;100606.06;5078055;27;60874;-42
2022/11/07 04:38:26;;;;;;;;;3.50;2.00;;;;;14.20;65.27;100606.00;5078046;27;53855;-42
2022/11/07 04:40:54;;;;;;;;;4.00;2.00;;;;;14.17;65.67;100592.97;5078586;28;45449;-42
2022/11/07 04:43:19;;;;;;;;;6.00;3.00;;;;;14.23;65.20;100599.72;5079293;27;45371;-42
2022/11/07 04:45:44;;;;;;;;;3.50;3.00;;;;;14.25;65.40;100600.50;5078825;27;73254;-44
2022/11/07 04:48:12;;;;;;;;;3.00;2.00;;;;;14.25;65.27;100600.50;5077306;27;64277;-41
2022/11/07 04:50:38;;;;;;;;;3.75;1.75;;;;;14.23;65.63;100594.47;5079497;27;45343;-42
2022/11/07 04:53:04;;;;;;;;;2.50;0.00;;;;;14.22;65.44;100606.78;5079248;27;45312;-41
2022/11/07 04:55:29;;;;;;;;;2.50;1.50;;;;;14.22;65.31;100605.94;5077859;28;66968;-41
2022/11/07 04:57:55;;;;;;;;;7.50;3.00;;;;;14.23;65.52;100607.63;5072241;28;45522;-41
2022/11/07 05:00:20;;;;;;;;;4.25;2.00;;;;;14.23;65.16;100597.94;5068243;28;45494;-42
2022/11/07 05:02:46;;;;;;;;;9.00;3.00;;;;;14.25;65.62;100600.50;5073622;28;46917;-46
2022/11/07 05:05:12;;;;;;;;;3.00;1.75;;;;;14.26;65.11;100604.88;5075268;28;45794;-43
2022/11/07 05:07:38;;;;;;;;;10.00;3.00;;;;;14.28;65.22;100589.84;5078117;27;56344;-44
2022/11/07 05:10:05;;;;;;;;;6.25;1.75;;;;;14.29;65.49;100588.94;5079474;27;45216;-42
2022/11/07 05:12:30;;;;;;;;;3.00;1.00;;;;;14.30;65.63;100589.78;5077368;28;46070;-43
2022/11/07 05:14:55;;;;;;;;;7.50;1.75;;;;;14.30;65.20;100593.25;5082227;27;45257;-49
2022/11/07 05:17:21;;;;;;;;;4.75;1.75;;;;;14.29;65.61;100591.56;5076729;27;69411;-42
2022/11/07 05:19:46;;;;;;;;;4.00;2.00;;;;;14.29;65.59;100591.56;5076304;27;66564;-45
2022/11/07 05:24:55;;;;;;;;;7.75;1.00;;;;;14.32;65.16;100596.69;5081651;27;45689;-42
2022/11/07 05:27:21;;;;;;;;;5.75;3.00;;;;;14.30;65.25;100609.06;5073030;28;45445;-44
2022/11/07 05:29:47;;;;;;;;;2.75;2.00;;;;;14.31;65.57;100609.94;5078180;27;45472;-41
2022/11/07 05:32:13;;;;;;;;;6.00;2.00;;;;;14.30;65.28;100606.44;5076471;28;58098;-43
2022/11/07 05:34:38;;;;;;;;;3.50;1.00;;;;;14.30;65.27;100627.47;5072643;27;45386;-41
2022/11/07 05:37:07;;;;;;;;;6.50;1.50;;;;;14.29;65.04;100628.44;5077953;28;45319;-41
2022/11/07 05:39:33;;;;;;;;;3.50;1.50;;;;;14.30;65.41;100632.75;5079295;27;45274;-42
2022/11/07 05:41:59;;;;;;;;;6.00;2.75;;;;;14.30;65.69;100638.00;5078476;28;55226;-42
2022/11/07 05:44:24;;;;;;;;;2.00;1.25;;;;;14.32;65.30;100638.78;5080859;27;45217;-41
2022/11/07 05:46:50;;;;;;;;;2.00;1.00;;;;;14.32;65.36;100637.94;5065916;27;45393;-43
2022/11/07 05:49:15;;;;;;;;;4.00;1.00;;;;;14.36;65.62;100643.03;5081597;27;70944;-44
2022/11/07 05:51:42;;;;;;;;;3.50;2.00;;;;;14.37;65.25;100635.97;5080222;27;47055;-42
2022/11/07 05:54:07;;;;;;;;;6.25;1.50;;;;;14.38;65.29;100642.97;5081005;27;45301;-42
2022/11/07 05:56:33;;;;;;;;;6.00;4.00;;;;;14.36;65.46;100648.28;5080465;28;45366;-43
2022/11/07 05:58:58;;;;;;;;;2.50;0.50;;;;;14.36;65.20;100643.03;5057509;27;45497;-43
2022/11/07 06:01:23;;;;;;;;;4.50;1.25;;;;;14.36;65.27;100640.38;5064414;27;74078;-42
2022/11/07 06:03:49;;;;;;;;;4.75;1.00;;;;;14.38;65.43;100649.06;5078990;28;45525;-42
2022/11/07 06:06:14;;;;;;;;;2.50;1.00;;;;;14.39;65.84;100648.13;5066231;27;45366;-43
2022/11/07 06:08:39;;;;;;;;;7.00;1.50;;;;;14.42;65.45;100637.47;5070405;27;63677;-42
2022/11/07 06:11:05;;;;;;;;;6.25;1.50;;;;;14.42;65.15;100632.22;5080879;28;45353;-42
2022/11/07 06:13:30;;;;;;;;;3.50;0.50;;;;;14.42;65.54;100640.09;5082118;27;45535;-43
2022/11/07 06:15:56;;;;;;;;;1.75;1.00;;;;;14.43;65.21;100635.72;5085364;27;54829;-42
2022/11/07 06:18:21;;;;;;;;;5.50;1.50;;;;;14.42;65.42;100631.34;5079921;27;61345;-47
2022/11/07 06:20:47;;;;;;;;;2.50;2.00;;;;;14.42;65.52;100634.84;5079736;28;46142;-41
2022/11/07 06:23:12;;;;;;;;;1.25;0.50;;;;;14.42;65.06;100647.16;5080045;27;62381;-42
2022/11/07 06:25:38;;;;;;;;;2.25;1.00;;;;;14.43;65.16;100641.81;5078800;27;45545;-41
2022/11/07 06:28:06;;;;;;;;;3.00;2.00;;;;;14.43;65.36;100647.09;5081824;27;45464;-42
2022/11/07 06:30:31;;;;;;;;;4.50;0.50;;;;;14.46;65.28;100656.63;5079393;28;46395;-42
2022/11/07 06:33:00;;;;;;;;;1.75;1.25;;;;;14.45;65.17;100654.94;5080690;28;45343;-44
2022/11/07 06:35:25;;;;;;;;;4.25;2.25;;;;;14.45;64.75;100657.56;5083727;27;45382;-43
2022/11/07 06:37:51;;;;;;;;;6.00;1.25;;;;;14.47;65.00;100666.25;5080900;27;60087;-43
2022/11/07 06:40:16;;;;;;;;;7.50;1.75;;;;;14.45;65.35;100662.81;5079028;28;75496;-43
2022/11/07 06:42:41;;;;;;;;;2.25;2.00;;;;;14.46;64.96;100661.88;5073560;27;45409;-44
2022/11/07 06:45:07;;;;;;;;;0.50;0.50;;;;;14.47;65.29;100657.50;5076712;27;63660;-44
2022/11/07 06:47:32;;;;;;;;;2.00;2.00;;;;;14.48;65.24;100654.75;5081589;27;45506;-42
2022/11/07 06:49:58;;;;;;;;;3.00;2.00;;;;;14.50;65.20;100650.31;5077780;27;45446;-42
2022/11/07 06:52:23;;;;;;;;;3.50;2.00;;;;;14.51;65.04;100659.06;5077523;27;70459;-42
2022/11/07 06:54:48;;;;;;;;;3.25;2.00;;;;;14.51;65.33;100654.63;5080414;27;70229;-44
2022/11/07 06:57:14;;;;;;;;;2.25;1.00;;;;;14.51;65.02;100669.59;5079708;27;72791;-43
2022/11/07 06:59:39;;;;;;;;;4.00;3.00;;;;;14.51;64.95;100672.22;5061145;28;47052;-43
2022/11/07 07:02:04;;;;;;;;;2.75;1.50;;;;;14.52;65.30;100672.16;5080505;27;68663;-42
2022/11/07 07:04:30;;;;;;;;;5.75;1.75;;;;;14.51;65.12;100661.69;5073352;27;45473;-42
2022/11/07 07:06:55;;;;;;;;;4.50;1.50;;;;;14.49;64.94;100667.03;5081294;27;45177;-43
2022/11/07 07:09:20;;;;;;;;;4.75;1.50;;;;;14.51;65.48;100672.22;5081171;27;46130;-41
2022/11/07 07:11:47;;;;;;;;;2.00;1.00;;;;;14.52;65.19;100666.03;5080098;28;45388;-41
2022/11/07 07:14:12;;;;;;;;;5.25;0.75;;;;;14.56;65.18;100672.88;5080653;27;45276;-44
2022/11/07 07:16:38;;;;;;;;;7.25;2.25;;;;;14.57;65.37;100675.44;5076512;27;45409;-44
2022/11/07 07:19:03;;;;;;;;;5.25;1.50;;;;;14.60;65.39;100679.75;5085782;27;45749;-43
2022/11/07 07:21:29;;;;;;;;;7.25;2.50;;;;;14.61;65.33;100678.84;5080802;27;63875;-41
2022/11/07 07:23:54;;;;;;;;;6.25;2.50;;;;;14.64;65.52;100669.94;5080540;27;45324;-43
2022/11/07 07:26:20;;;;;;;;;6.25;2.00;;;;;14.66;65.04;100675.97;5080591;27;45390;-45
2022/11/07 07:28:47;;;;;;;;;2.75;2.00;;;;;14.66;65.42;100678.59;5077965;27;47634;-42
2022/11/07 07:31:12;;;;;;;;;6.00;4.00;;;;;14.66;64.97;100676.84;5080237;27;45357;-42
2022/11/07 07:33:38;;;;;;;;;7.33;3.00;;;;;14.67;65.09;100672.44;5079751;27;45496;-41
2022/11/07 07:36:04;;;;;;;;;7.25;2.25;;;;;14.69;65.56;100675.84;5062244;28;45502;-45
2022/11/07 07:38:29;;;;;;;;;4.50;2.00;;;;;14.71;65.54;100674.00;5079558;27;45366;-42
2022/11/07 07:40:56;;;;;;;;;5.25;2.50;;;;;14.74;65.62;100676.50;5080059;27;64821;-47
2022/11/07 07:43:22;;;;;;;;;6.00;2.50;;;;;14.74;65.57;100674.69;5082067;27;45296;-43
2022/11/07 07:45:47;;;;;;;;;4.00;0.50;;;;;14.76;65.48;100677.28;5078552;27;62856;-46
2022/11/07 07:48:12;;;;;;;;;3.25;1.25;;;;;14.78;65.24;100684.19;5077259;27;58299;-46
2022/11/07 07:50:38;;;;;;;;;5.50;3.00;;;;;14.80;65.49;100678.84;5073856;27;45567;-45
2022/11/07 07:53:03;;;;;;;;;1.50;1.25;;;;;14.84;65.05;100687.44;5077588;27;66493;-47
2022/11/07 07:55:28;;;;;;;;;2.00;2.00;;;;;14.84;65.00;100677.78;5080889;27;45430;-45
2022/11/07 07:57:54;;;;;;;;;2.50;1.00;;;;;14.85;65.07;100676.00;5074337;28;59993;-46
2022/11/07 08:00:19;;;;;;;;;2.75;1.75;;;;;14.85;65.29;100683.91;5067898;28;45443;-45
2022/11/07 08:02:44;;;;;;;;;5.25;2.50;;;;;14.87;65.08;100692.59;5068503;28;45443;-44
2022/11/07 08:05:12;;;;;;;;;5.00;2.00;;;;;14.89;65.11;100696.88;5068276;28;45469;-42
2022/11/07 08:07:47;;;;;;;;;3.50;2.25;;;;;14.89;65.40;100691.63;5079434;28;46278;-46
2022/11/07 08:10:13;;;;;;;;;5.25;3.00;;;;;14.92;65.51;100701.13;5079024;28;45350;-43
2022/11/07 08:12:46;;;;;;;;;1.75;1.75;;;;;14.91;65.05;100699.41;5080190;27;45290;-41
2022/11/07 08:15:13;;;;;;;;;5.50;2.50;;;;;14.93;65.45;100705.50;5096016;27;45450;-44
2022/11/07 08:17:39;;;;;;;;;4.25;1.50;;;;;14.96;65.20;100710.59;5081216;27;46417;-43
2022/11/07 08:20:05;;;;;;;;;2.75;2.25;;;;;14.98;65.18;100704.34;5076364;27;45239;-48
2022/11/07 08:22:31;;;;;;;;;5.25;3.75;;;;;15.03;65.56;100717.31;5079869;28;45520;-46
2022/11/07 08:24:56;;;;;;;;;7.50;3.75;;;;;15.09;64.92;100708.28;5073427;27;55442;-41
2022/11/07 08:27:21;;;;;;;;;4.75;3.00;;;;;15.11;65.30;100715.19;5076631;28;65320;-44
2022/11/07 08:29:46;;;;;;;;;3.00;2.25;;;;;15.14;65.33;100715.06;5075807;27;62268;-46
2022/11/07 08:32:12;;;;;;;;;4.25;3.00;;;;;15.17;65.13;100719.31;5077965;27;65797;-47
2022/11/07 08:34:37;;;;;;;;;3.75;2.50;;;;;15.21;65.22;100720.03;5079087;27;56438;-45
2022/11/07 08:37:03;;;;;;;;;2.25;2.00;;;;;15.24;64.66;100718.09;5076970;28;66546;-45
2022/11/07 08:39:28;;;;;;;;;4.25;2.00;;;;;15.29;64.75;100725.81;5078918;27;69770;-46
2022/11/07 08:41:54;;;;;;;;;4.25;1.00;;;;;15.32;64.60;100718.59;5076665;27;45331;-45
2022/11/07 08:44:19;;;;;;;;;3.00;1.25;;;;;15.37;64.59;100726.31;5079529;27;45383;-44
2022/11/07 08:46:44;;;;;;;;;6.00;3.25;;;;;15.40;64.49;100725.28;5077555;27;55993;-41
2022/11/07 08:49:10;;;;;;;;;4.50;2.25;;;;;15.43;64.46;100720.72;5078806;27;68754;-41
2022/11/07 08:51:35;;;;;;;;;6.00;3.00;;;;;15.44;64.25;100717.19;5075679;27;65842;-46
2022/11/07 08:54:00;;;;;;;;;5.00;1.75;;;;;15.45;64.23;100721.50;5079096;27;55271;-46
2022/11/07 08:56:26;;;;;;;;;4.00;1.25;;;;;15.46;64.22;100715.31;5076057;28;45337;-42
2022/11/07 08:58:51;;;;;;;;;3.75;1.25;;;;;15.51;64.44;100723.88;5068413;27;50203;-45
2022/11/07 09:01:16;;;;;;;;;8.00;2.00;;;;;15.54;64.23;100717.56;5085512;27;63857;-43
2022/11/07 09:03:42;;;;;;;;;6.50;4.00;;;;;15.56;64.25;100716.59;5077405;27;45303;-42
2022/11/07 09:06:07;;;;;;;;;7.50;1.50;;;;;15.61;64.11;100726.06;5076128;28;46229;-47
2022/11/07 09:08:32;;;;;;;;;3.00;2.00;;;;;15.61;63.94;100726.91;5078103;27;73581;-46
2022/11/07 09:11:02;;;;;;;;;7.50;2.00;;;;;15.61;63.81;100729.53;5078617;27;49720;-45
2022/11/07 09:13:29;;;;;;;;;2.75;1.75;;;;;15.59;63.85;100733.19;5079392;27;45420;-43
2022/11/07 09:15:58;;;;;;;;;2.00;1.50;;;;;15.57;63.96;100734.09;5072954;28;46367;-42
2022/11/07 09:18:24;;;;;;;;;3.25;2.00;;;;;15.57;63.92;100746.47;5082589;27;45285;-44
2022/11/07 09:20:50;;;;;;;;;7.25;2.00;;;;;15.60;64.01;100746.31;5079713;27;45308;-43
2022/11/07 09:23:15;;;;;;;;;5.50;2.50;;;;;15.62;63.78;100747.09;5080508;27;45540;-42
2022/11/07 09:25:40;;;;;;;;;4.50;2.00;;;;;15.64;63.95;100739.09;5082423;28;46252;-41
2022/11/07 09:28:06;;;;;;;;;3.75;2.25;;;;;15.65;63.65;100754.88;5079286;27;60694;-42
2022/11/07 09:30:31;;;;;;;;;4.75;2.00;;;;;15.67;63.70;100753.00;5077892;27;65604;-41
2022/11/07 09:32:57;;;;;;;;;7.00;1.00;;;;;15.68;63.79;100749.41;5072774;27;45322;-44
2022/11/07 09:35:22;;;;;;;;;5.00;2.00;;;;;15.70;63.80;100749.34;5079399;28;46018;-41
2022/11/07 09:37:49;;;;;;;;;1.25;1.25;;;;;15.72;63.86;100755.41;5080938;27;45391;-42
2022/11/07 09:40:33;;;;;;;;;3.75;3.00;;;;;15.73;63.26;100755.34;5082708;28;45382;-43
2022/11/07 09:43:49;;;;;;;;;6.00;2.50;;;;;15.75;63.61;100742.09;5080522;27;45438;-41
2022/11/07 09:46:39;;;;;;;;;4.00;1.00;;;;;15.79;63.51;100759.47;5068586;27;45653;-47
2022/11/07 09:49:21;;;;;;;;;11.75;6.00;;;;;15.82;63.34;100751.44;5078535;27;45313;-43
2022/11/07 09:51:49;;;;;;;;;14.25;9.25;;;;;15.86;63.67;100752.97;5083644;27;45347;-46
2022/11/07 09:54:19;;;;;;;;;7.75;4.00;;;;;15.92;63.34;100751.84;5080626;28;45269;-45
2022/11/07 09:56:45;;;;;;;;;7.75;4.25;;;;;15.96;63.45;100755.19;5080270;28;45427;-46
2022/11/07 09:59:20;;;;;;;;;5.50;4.00;;;;;15.98;63.47;100756.81;5068697;27;45466;-46
2022/11/07 10:01:45;;;;;;;;;1.25;1.25;;;;;16.00;63.06;100762.03;5076915;28;45360;-46
2022/11/07 10:04:15;;;;;;;;;7.75;5.00;;;;;16.01;63.29;100754.03;5079314;28;69998;-47
2022/11/07 10:06:55;;;;;;;;;7.25;2.00;;;;;16.04;62.85;100761.81;5073643;27;45377;-46
2022/11/07 10:09:20;;;;;;;;;3.50;2.00;;;;;16.02;62.87;100753.09;5082901;27;45515;-47
2022/11/07 10:11:55;;;;;;;;;6.00;3.00;;;;;16.03;62.75;100756.59;5081036;27;45303;-45
2022/11/07 10:14:53;;;;;;;;;6.50;4.50;;;;;16.05;63.02;100765.28;5080271;28;45367;-47
2022/11/07 10:17:32;;;;;;;;;5.00;3.50;;;;;16.09;62.73;100759.75;5080737;27;45229;-43
2022/11/07 10:20:26;;;;;;;;;4.25;2.00;;;;;16.14;63.04;100768.31;5079671;27;45543;-43
2022/11/07 10:22:57;;;;;;;;;2.00;2.00;;;;;16.17;62.84;100769.97;5070987;28;45363;-44
2022/11/07 10:25:34;;;;;;;;;7.75;3.00;;;;;16.18;62.93;100761.09;5079886;28;45457;-47
2022/11/07 10:28:05;;;;;;;;;7.50;3.25;;;;;16.20;62.51;100753.97;5079911;27;47225;-42
2022/11/07 10:30:32;;;;;;;;;4.50;2.00;;;;;16.22;62.66;100749.47;5077371;27;45616;-44
2022/11/07 10:33:00;;;;;;;;;4.75;3.75;;;;;16.25;62.56;100759.00;5080787;28;45302;-42
2022/11/07 10:35:33;;;;;;;;;4.50;3.00;;;;;16.30;62.64;100744.63;5084321;27;45251;-44
2022/11/07 10:38:01;;;;;;;;;7.75;6.25;;;;;16.33;62.41;100741.84;5080099;27;46359;-41
2022/11/07 10:40:32;;;;;;;;;10.25;4.25;;;;;16.37;62.16;100745.19;5080136;28;45437;-43
2022/11/07 10:42:59;;;;;;;;;4.00;2.00;;;;;16.38;62.08;100741.63;5080192;27;45476;-45
2022/11/07 10:45:26;;;;;;;;;5.75;3.00;;;;;16.39;62.36;100735.38;5080920;28;45307;-42
2022/11/07 10:48:01;;;;;;;;;5.50;4.50;;;;;16.40;62.29;100739.75;5078141;27;62591;-41
2022/11/07 10:50:27;;;;;;;;;8.75;8.75;;;;;16.40;62.01;100742.38;5076581;28;45264;-41
2022/11/07 10:53:08;;;;;;;;;9.75;4.75;;;;;16.41;62.28;100740.59;5080032;27;45399;-43
2022/11/07 10:55:44;;;;;;;;;6.25;4.00;;;;;16.46;61.91;100749.13;5079320;27;45459;-45
2022/11/07 10:58:23;;;;;;;;;3.00;3.00;;;;;16.48;62.17;100742.00;5072350;27;45467;-48
2022/11/07 11:00:57;;;;;;;;;5.75;2.00;;;;;16.48;62.24;100742.88;5071700;28;45437;-44
2022/11/07 11:03:30;;;;;;;;;5.25;3.00;;;;;16.48;61.88;100744.63;5065488;27;45232;-46
2022/11/07 11:05:55;;;;;;;;;6.00;4.00;;;;;16.50;62.01;100741.00;5076174;27;45233;-43
2022/11/07 11:08:26;;;;;;;;;4.75;2.00;;;;;16.52;61.74;100746.19;5080991;27;45323;-45
2022/11/07 11:10:51;;;;;;;;;6.00;3.00;;;;;16.51;61.73;100740.03;5080484;27;45869;-45
2022/11/07 11:13:43;;;;;;;;;3.00;3.00;;;;;16.52;61.87;100739.13;5078606;28;65604;-45
2022/11/07 11:16:27;;;;;;;;;4.50;4.00;;;;;16.54;61.72;100733.75;5077892;27;45369;-44
2022/11/07 11:18:56;;;;;;;;;5.00;2.00;;;;;16.57;61.62;100730.94;5081778;27;47273;-44
2022/11/07 11:21:22;;;;;;;;;4.00;2.75;;;;;16.58;61.40;100730.00;5080333;27;45268;-42
2022/11/07 11:23:48;;;;;;;;;7.50;4.25;;;;;16.61;61.31;100718.41;5079753;27;45425;-42
2022/11/07 11:26:19;;;;;;;;;4.00;4.00;;;;;16.65;61.65;100725.28;5079683;28;45251;-42
2022/11/07 11:28:49;;;;;;;;;7.00;2.00;;;;;16.67;61.21;100721.59;5080290;28;45326;-45
2022/11/07 11:31:19;;;;;;;;;2.25;2.00;;;;;16.71;61.01;100732.84;5072951;27;45867;-43
2022/11/07 11:33:53;;;;;;;;;4.00;3.00;;;;;16.77;61.22;100731.69;5079047;27;45334;-41
2022/11/07 11:36:21;;;;;;;;;5.25;2.75;;;;;16.79;61.18;100727.19;5079362;27;45552;-45